createdAt,value
2022-08-22T00:01:22.143Z,10.35
2022-08-22T00:02:41.709Z,3.35
2022-08-22T00:02:49.418Z,3.83
2022-08-22T00:02:57.968Z,11.52
2022-08-22T00:03:53.879Z,12.27
2022-08-22T00:06:20.433Z,10.82
2022-08-22T00:08:30.741Z,12.02
2022-08-22T00:11:06.510Z,12.75
2022-08-22T00:13:18.597Z,10.50
2022-08-22T00:15:42.264Z,10.25
2022-08-22T00:18:27.865Z,10.45
2022-08-22T00:20:41.798Z,9.40
2022-08-22T00:23:12.058Z,9.98
2022-08-22T00:25:58.639Z,11.07
2022-08-22T00:28:14.198Z,9.88
2022-08-22T00:30:18.576Z,10.52
2022-08-22T00:32:29.111Z,10.20
2022-08-22T00:34:48.645Z,10.95
2022-08-22T00:37:06.862Z,14.20
2022-08-22T00:39:30.215Z,14.02
2022-08-22T00:41:58.228Z,13.25
2022-08-22T00:44:22.377Z,14.05
2022-08-22T00:46:55.904Z,10.88
2022-08-22T00:49:03.659Z,10.60
2022-08-22T00:51:46.682Z,10.15
2022-08-22T00:53:58.585Z,11.32
2022-08-22T00:56:21.781Z,11.65
2022-08-22T00:58:41.771Z,12.98
2022-08-22T01:00:54.691Z,12.23
2022-08-22T01:03:02.910Z,11.38
2022-08-22T01:05:49.134Z,12.52
2022-08-22T01:08:28.680Z,12.15
2022-08-22T01:10:33.741Z,12.05
2022-08-22T01:12:54.622Z,12.77
2022-08-22T01:15:07.447Z,15.18
2022-08-22T01:17:31.358Z,12.23
2022-08-22T01:19:43.409Z,13.30
2022-08-22T01:22:07.765Z,11.85
2022-08-22T01:24:27.498Z,9.90
2022-08-22T01:26:58.317Z,12.63
2022-08-22T01:29:19.140Z,11.63
2022-08-22T01:32:09.899Z,13.02
2022-08-22T01:35:00.361Z,11.80
2022-08-22T01:37:14.995Z,10.02
2022-08-22T01:39:40.627Z,12.68
2022-08-22T01:42:01.267Z,11.98
2022-08-22T01:44:34.158Z,13.07
2022-08-22T01:46:54.001Z,13.50
2022-08-22T01:49:06.648Z,13.68
2022-08-22T01:51:28.510Z,13.95
2022-08-22T01:54:11.088Z,16.77
2022-08-22T01:56:18.451Z,14.23
2022-08-22T01:58:25.220Z,14.77
2022-08-22T02:00:35.298Z,16.35
2022-08-22T02:03:07.489Z,12.77
2022-08-22T02:05:37.507Z,15.57
2022-08-22T02:07:48.602Z,12.57
2022-08-22T02:10:05.515Z,13.57
2022-08-22T02:12:21.897Z,13.13
2022-08-22T02:14:33.152Z,15.35
2022-08-22T02:17:07.530Z,16.58
2022-08-22T02:19:15.924Z,17.98
2022-08-22T02:21:47.326Z,16.85
2022-08-22T02:24:05.807Z,18.05
2022-08-22T02:26:17.034Z,19.92
2022-08-22T02:28:57.479Z,21.48
2022-08-22T02:31:12.149Z,20.80
2022-08-22T02:33:43.039Z,20.80
2022-08-22T02:36:16.256Z,19.52
2022-08-22T02:38:47.444Z,21.67
2022-08-22T02:40:52.976Z,21.55
2022-08-22T02:43:19.194Z,21.80
2022-08-22T02:45:46.390Z,22.45
2022-08-22T02:47:51.387Z,22.10
2022-08-22T02:50:23.754Z,24.73
2022-08-22T02:53:03.196Z,27.30
2022-08-22T02:55:38.010Z,23.65
2022-08-22T02:58:04.853Z,23.17
2022-08-22T03:00:31.289Z,22.50
2022-08-22T03:02:39.580Z,22.67
2022-08-22T03:04:41.651Z,22.48
2022-08-22T03:06:59.677Z,20.85
2022-08-22T03:09:16.954Z,20.27
2022-08-22T03:11:29.758Z,21.83
2022-08-22T03:13:56.282Z,21.63
2022-08-22T03:16:07.051Z,22.98
2022-08-22T03:18:44.629Z,18.92
2022-08-22T03:20:59.375Z,21.55
2022-08-22T03:23:10.028Z,20.77
2022-08-22T03:25:25.636Z,22.10
2022-08-22T03:27:34.805Z,21.67
2022-08-22T03:29:44.289Z,20.13
2022-08-22T03:32:11.873Z,19.20
2022-08-22T03:34:27.383Z,17.10
2022-08-22T03:36:31.503Z,17.85
2022-08-22T03:38:33.467Z,16.33
2022-08-22T03:40:58.256Z,16.25
2022-08-22T03:43:54.189Z,16.60
2022-08-22T03:46:21.720Z,16.35
2022-08-22T03:48:42.461Z,17.45
2022-08-22T03:51:21.413Z,15.13
2022-08-22T03:53:32.351Z,18.85
2022-08-22T03:56:11.725Z,15.15
2022-08-22T03:58:38.710Z,16.95
2022-08-22T04:00:56.688Z,17.52
2022-08-22T04:03:22.620Z,13.38
2022-08-22T04:06:02.266Z,13.43
2022-08-22T04:08:16.527Z,16.67
2022-08-22T04:10:56.636Z,14.43
2022-08-22T04:13:24.765Z,15.18
2022-08-22T04:15:45.857Z,13.75
2022-08-22T04:17:54.315Z,13.98
2022-08-22T04:20:09.800Z,15.23
2022-08-22T04:22:38.057Z,12.63
2022-08-22T04:24:56.727Z,13.10
2022-08-22T04:27:19.303Z,12.50
2022-08-22T04:29:30.938Z,12.75
2022-08-22T04:31:46.397Z,11.82
2022-08-22T04:34:01.131Z,12.32
2022-08-22T04:36:22.083Z,12.80
2022-08-22T04:38:30.147Z,12.70
2022-08-22T04:40:43.770Z,11.57
2022-08-22T04:43:22.081Z,11.63
2022-08-22T04:45:52.365Z,10.68
2022-08-22T04:48:07.469Z,10.20
2022-08-22T04:50:22.342Z,11.50
2022-08-22T04:52:43.081Z,11.05
2022-08-22T04:54:57.570Z,12.45
2022-08-22T04:57:28.432Z,12.10
2022-08-22T04:59:31.291Z,10.65
2022-08-22T05:01:55.586Z,11.70
2022-08-22T05:04:13.341Z,9.15
2022-08-22T05:06:19.295Z,10.38
2022-08-22T05:08:31.441Z,9.93
2022-08-22T05:10:42.984Z,9.85
2022-08-22T05:13:00.876Z,8.88
2022-08-22T05:15:10.332Z,8.35
2022-08-22T05:17:21.486Z,9.00
2022-08-22T05:19:32.230Z,8.80
2022-08-22T05:21:41.080Z,9.05
2022-08-22T05:24:14.316Z,9.70
2022-08-22T05:26:18.868Z,8.88
2022-08-22T05:28:39.011Z,9.05
2022-08-22T05:30:43.437Z,10.27
2022-08-22T05:33:09.997Z,10.32
2022-08-22T05:35:12.572Z,9.55
2022-08-22T05:37:20.513Z,9.60
2022-08-22T05:39:28.045Z,9.65
2022-08-22T05:41:38.411Z,10.13
2022-08-22T05:43:43.877Z,9.20
2022-08-22T05:45:48.216Z,10.27
2022-08-22T05:47:59.951Z,10.75
2022-08-22T05:50:13.038Z,10.07
2022-08-22T05:52:46.028Z,10.43
2022-08-22T05:55:01.525Z,10.82
2022-08-22T05:57:37.150Z,9.60
2022-08-22T05:59:43.616Z,10.27
2022-08-22T06:01:58.034Z,9.50
2022-08-22T06:04:15.468Z,11.13
2022-08-22T06:06:20.008Z,10.43
2022-08-22T06:08:23.670Z,11.30
2022-08-22T06:10:43.998Z,9.45
2022-08-22T06:12:59.900Z,9.80
2022-08-22T06:15:12.539Z,10.65
2022-08-22T06:17:25.517Z,11.30
2022-08-22T06:19:28.939Z,10.18
2022-08-22T06:21:38.668Z,11.68
2022-08-22T06:23:48.119Z,11.43
2022-08-22T06:25:55.262Z,10.70
2022-08-22T06:28:02.699Z,11.63
2022-08-22T06:30:07.285Z,10.65
2022-08-22T06:32:58.330Z,11.05
2022-08-22T06:35:10.828Z,9.63
2022-08-22T06:37:31.823Z,10.38
2022-08-22T06:39:37.511Z,12.20
2022-08-22T06:41:45.403Z,10.90
2022-08-22T06:43:53.007Z,10.65
2022-08-22T06:45:55.860Z,10.85
2022-08-22T06:48:16.976Z,10.38
2022-08-22T06:50:31.181Z,10.30
2022-08-22T06:52:37.839Z,10.35
2022-08-22T06:54:45.568Z,10.43
2022-08-22T06:56:51.285Z,10.98
2022-08-22T06:58:58.538Z,11.15
2022-08-22T07:01:12.188Z,11.85
2022-08-22T07:03:43.807Z,10.50
2022-08-22T07:05:47.856Z,10.20
2022-08-22T07:07:51.404Z,10.27
2022-08-22T07:09:57.920Z,11.30
2022-08-22T07:12:03.461Z,10.10
2022-08-22T07:14:12.305Z,11.48
2022-08-22T07:16:15.559Z,9.85
2022-08-22T07:18:21.800Z,11.07
2022-08-22T07:20:28.757Z,10.05
2022-08-22T07:22:35.428Z,11.00
2022-08-22T07:24:48.404Z,9.82
2022-08-22T07:27:10.112Z,9.15
2022-08-22T07:29:23.148Z,9.20
2022-08-22T07:31:34.811Z,9.43
2022-08-22T07:33:48.855Z,8.80
2022-08-22T07:36:05.261Z,9.35
2022-08-22T07:38:43.132Z,9.15
2022-08-22T07:41:16.489Z,11.07
2022-08-22T07:43:46.710Z,9.55
2022-08-22T07:45:57.069Z,10.30
2022-08-22T07:48:24.862Z,10.88
2022-08-22T07:50:36.699Z,9.07
2022-08-22T07:53:10.006Z,9.93
2022-08-22T07:55:26.397Z,9.23
2022-08-22T07:57:33.452Z,8.88
2022-08-22T07:59:41.187Z,9.57
2022-08-22T08:01:51.409Z,8.05
2022-08-22T08:04:01.912Z,8.27
2022-08-22T08:06:05.098Z,10.20
2022-08-22T08:08:20.251Z,8.57
2022-08-22T08:10:28.644Z,10.18
2022-08-22T08:12:40.365Z,9.20
2022-08-22T08:14:46.432Z,10.20
2022-08-22T08:17:03.808Z,10.00
2022-08-22T08:19:08.465Z,11.63
2022-08-22T08:21:34.329Z,11.10
2022-08-22T08:23:46.501Z,9.20
2022-08-22T08:25:55.036Z,9.48
2022-08-22T08:28:19.988Z,9.90
2022-08-22T08:30:32.416Z,9.45
2022-08-22T08:32:38.038Z,9.55
2022-08-22T08:34:46.996Z,10.05
2022-08-22T08:36:55.436Z,9.57
2022-08-22T08:39:35.004Z,9.50
2022-08-22T08:41:49.430Z,8.50
2022-08-22T08:43:57.253Z,8.77
2022-08-22T08:46:26.274Z,7.95
2022-08-22T08:48:47.404Z,8.80
2022-08-22T08:51:09.274Z,9.13
2022-08-22T08:56:07.198Z,8.55
2022-08-22T08:58:40.144Z,8.18
2022-08-22T09:00:46.017Z,7.88
2022-08-22T09:03:21.162Z,7.60
2022-08-22T09:05:53.064Z,7.20
2022-08-22T09:08:01.765Z,7.43
2022-08-22T09:10:27.390Z,7.95
2022-08-22T09:13:12.245Z,8.70
2022-08-22T09:15:38.993Z,7.85
2022-08-22T09:17:44.566Z,7.97
2022-08-22T09:22:27.905Z,7.35
2022-08-22T09:25:15.154Z,7.32
2022-08-22T09:27:50.190Z,8.50
2022-08-22T09:30:02.637Z,6.95
2022-08-22T09:35:22.437Z,6.95
2022-08-22T09:37:55.747Z,8.10
2022-08-22T09:40:06.340Z,7.47
2022-08-22T09:40:16.672Z,7.80
2022-08-22T09:42:38.778Z,6.30
2022-08-22T09:45:11.908Z,7.07
2022-08-22T09:47:41.971Z,7.03
2022-08-22T09:49:45.093Z,7.63
2022-08-22T09:52:34.233Z,6.68
2022-08-22T09:54:48.674Z,6.97
2022-08-22T09:57:01.756Z,6.45
2022-08-22T09:59:14.817Z,6.70
2022-08-22T10:01:33.583Z,7.82
2022-08-22T10:04:13.419Z,8.07
2022-08-22T10:06:27.769Z,8.15
2022-08-22T10:08:50.750Z,8.25
2022-08-22T10:11:12.041Z,8.90
2022-08-22T10:13:33.080Z,7.47
2022-08-22T10:16:02.196Z,8.43
2022-08-22T10:18:28.985Z,7.68
2022-08-22T10:20:44.761Z,6.82
2022-08-22T10:23:15.058Z,7.10
2022-08-22T10:25:34.963Z,7.22
2022-08-22T10:28:17.992Z,7.30
2022-08-22T10:30:31.252Z,6.65
2022-08-22T10:33:03.855Z,6.03
2022-08-22T10:35:19.990Z,7.40
2022-08-22T10:37:36.817Z,6.18
2022-08-22T10:39:57.932Z,6.85
2022-08-22T10:42:28.200Z,6.07
2022-08-22T10:44:56.683Z,5.95
2022-08-22T10:47:24.416Z,6.15
2022-08-22T10:49:35.387Z,6.15
2022-08-22T10:52:00.062Z,6.60
2022-08-22T10:54:29.893Z,5.55
2022-08-22T10:56:40.613Z,5.82
2022-08-22T10:58:56.396Z,5.68
2022-08-22T11:01:37.824Z,6.10
2022-08-22T11:03:35.485Z,5.65
2022-08-22T11:05:50.034Z,5.32
2022-08-22T11:07:56.215Z,5.30
2022-08-22T11:10:09.579Z,5.03
2022-08-22T11:12:28.183Z,4.93
2022-08-22T11:15:34.384Z,4.53
2022-08-22T11:18:05.381Z,4.35
2022-08-22T11:20:21.351Z,3.88
2022-08-22T11:22:33.787Z,3.97
2022-08-22T11:25:06.862Z,3.80
2022-08-22T11:27:39.531Z,3.97
2022-08-22T11:30:02.303Z,4.20
2022-08-22T11:32:29.802Z,4.20
2022-08-22T11:34:50.129Z,3.58
2022-08-22T11:37:15.176Z,3.53
2022-08-22T11:39:34.203Z,3.47
2022-08-22T11:41:52.545Z,3.83
2022-08-22T11:44:03.413Z,4.03
2022-08-22T11:46:28.233Z,3.42
2022-08-22T11:48:47.386Z,3.10
2022-08-22T11:51:13.396Z,2.95
2022-08-22T11:53:28.356Z,3.15
2022-08-22T11:55:35.261Z,3.25
2022-08-22T11:57:45.160Z,3.20
2022-08-22T12:00:13.895Z,3.35
2022-08-22T12:02:27.258Z,3.35
2022-08-22T12:04:42.502Z,3.17
2022-08-22T12:07:12.869Z,3.45
2022-08-22T12:10:07.557Z,3.28
2022-08-22T12:12:21.615Z,3.38
2022-08-22T12:14:50.090Z,3.35
2022-08-22T12:17:55.081Z,3.00
2022-08-22T12:20:15.073Z,3.17
2022-08-22T12:22:55.523Z,3.30
2022-08-22T12:25:17.980Z,3.88
2022-08-22T12:27:47.973Z,3.35
2022-08-22T12:30:14.239Z,3.50
2022-08-22T12:32:36.565Z,3.53
2022-08-22T12:35:13.513Z,2.78
2022-08-22T12:37:52.273Z,2.65
2022-08-22T12:40:36.570Z,2.63
2022-08-22T12:43:10.444Z,2.53
2022-08-22T12:45:50.715Z,2.67
2022-08-22T12:48:12.249Z,2.58
2022-08-22T12:50:35.874Z,2.55
2022-08-22T12:52:47.032Z,2.47
2022-08-22T12:55:25.043Z,2.47
2022-08-22T12:57:37.203Z,3.28
2022-08-22T12:59:45.350Z,3.25
2022-08-22T13:01:51.469Z,3.30
2022-08-22T13:04:01.377Z,3.83
2022-08-22T13:06:25.395Z,3.92
2022-08-22T13:08:37.217Z,2.78
2022-08-22T13:10:51.283Z,2.40
2022-08-22T13:12:56.981Z,3.00
2022-08-22T13:15:16.774Z,2.10
2022-08-22T13:17:24.997Z,2.72
2022-08-22T13:19:32.278Z,2.55
2022-08-22T13:21:43.398Z,2.65
2022-08-22T13:23:53.920Z,3.00
2022-08-22T13:26:31.588Z,2.65
2022-08-22T13:31:39.321Z,2.35
2022-08-22T13:33:48.044Z,2.67
2022-08-22T13:35:56.468Z,2.75
2022-08-22T13:38:12.255Z,2.90
2022-08-22T13:40:27.293Z,2.60
2022-08-22T13:42:36.490Z,2.53
2022-08-22T13:44:48.460Z,2.60
2022-08-22T13:47:12.939Z,2.78
2022-08-22T13:49:19.860Z,2.75
2022-08-22T13:51:28.813Z,2.60
2022-08-22T13:53:50.015Z,2.28
2022-08-22T13:56:15.636Z,2.60
2022-08-22T13:58:42.244Z,2.92
2022-08-22T14:01:14.283Z,2.78
2022-08-22T14:03:22.364Z,2.72
2022-08-22T14:05:41.632Z,2.30
2022-08-22T14:08:12.703Z,2.55
2022-08-22T14:10:29.636Z,2.30
2022-08-22T14:12:50.162Z,3.15
2022-08-22T14:14:59.651Z,2.45
2022-08-22T14:17:02.955Z,2.97
2022-08-22T14:19:29.508Z,2.80
2022-08-22T14:21:41.400Z,2.53
2022-08-22T14:23:45.099Z,2.40
2022-08-22T14:25:48.445Z,2.35
2022-08-22T14:27:52.542Z,2.55
2022-08-22T14:30:01.757Z,2.42
2022-08-22T14:32:32.255Z,2.08
2022-08-22T14:34:45.375Z,2.13
2022-08-22T14:36:56.585Z,1.92
2022-08-22T14:39:31.718Z,1.90
2022-08-22T14:41:57.963Z,2.08
2022-08-22T14:44:39.511Z,1.90
2022-08-22T14:46:52.160Z,2.00
2022-08-22T14:49:16.200Z,1.95
2022-08-22T14:51:26.824Z,1.50
2022-08-22T14:53:35.037Z,1.50
2022-08-22T14:55:39.974Z,1.60
2022-08-22T14:57:51.181Z,1.70
2022-08-22T14:59:54.686Z,2.08
2022-08-22T15:02:01.952Z,1.80
2022-08-22T15:04:18.839Z,1.75
2022-08-22T15:06:38.261Z,1.50
2022-08-22T15:08:50.945Z,1.80
2022-08-22T15:11:31.891Z,2.08
2022-08-22T15:13:36.179Z,1.77
2022-08-22T15:15:52.576Z,2.03
2022-08-22T15:17:55.842Z,1.67
2022-08-22T15:20:22.744Z,1.73
2022-08-22T15:22:29.810Z,1.98
2022-08-22T15:24:32.894Z,2.10
2022-08-22T15:26:40.553Z,1.85
2022-08-22T15:28:52.464Z,1.77
2022-08-22T15:31:05.463Z,1.70
2022-08-22T15:33:10.602Z,1.85
2022-08-22T15:35:39.128Z,1.80
2022-08-22T15:38:31.608Z,1.90
2022-08-22T15:40:36.665Z,2.05
2022-08-22T15:42:49.033Z,2.22
2022-08-22T15:44:55.079Z,1.88
2022-08-22T15:47:02.689Z,2.90
2022-08-22T15:49:19.541Z,2.83
2022-08-22T15:51:48.029Z,2.60
2022-08-22T15:54:03.443Z,2.28
2022-08-22T15:56:26.185Z,2.22
2022-08-22T15:58:28.571Z,1.98
2022-08-22T16:00:34.725Z,2.20
2022-08-22T16:02:55.903Z,2.33
2022-08-22T16:05:10.410Z,1.85
2022-08-22T16:07:39.747Z,2.80
2022-08-22T16:09:47.578Z,1.98
2022-08-22T16:11:55.704Z,1.90
2022-08-22T16:14:21.903Z,2.10
2022-08-22T16:16:26.492Z,1.63
2022-08-22T16:18:34.507Z,2.08
2022-08-22T16:20:36.256Z,2.10
2022-08-22T16:22:56.702Z,1.75
2022-08-22T16:25:01.645Z,2.10
2022-08-22T16:27:22.742Z,1.80
2022-08-22T16:29:41.165Z,1.90
2022-08-22T16:31:46.471Z,1.80
2022-08-22T16:33:48.426Z,1.85
2022-08-22T16:36:14.897Z,1.92
2022-08-22T16:38:36.732Z,1.88
2022-08-22T16:40:48.610Z,2.00
2022-08-22T16:43:09.895Z,1.90
2022-08-22T16:45:14.478Z,2.10
2022-08-22T16:47:19.298Z,2.03
2022-08-22T16:49:32.202Z,2.30
2022-08-22T16:51:34.271Z,1.60
2022-08-22T16:53:39.018Z,1.50
2022-08-22T16:56:05.787Z,1.58
2022-08-22T16:58:40.040Z,1.70
2022-08-22T17:01:03.441Z,1.65
2022-08-22T17:03:29.272Z,1.58
2022-08-22T17:06:17.523Z,2.42
2022-08-22T17:08:28.093Z,1.90
2022-08-22T17:10:48.130Z,2.50
2022-08-22T17:13:06.379Z,2.83
2022-08-22T17:15:08.291Z,2.65
2022-08-22T17:17:22.504Z,3.05
2022-08-22T17:19:59.980Z,5.13
2022-08-22T17:22:11.054Z,3.70
2022-08-22T17:24:33.970Z,3.72
2022-08-22T17:26:55.715Z,3.05
2022-08-22T17:29:03.704Z,3.55
2022-08-22T17:31:24.946Z,3.05
2022-08-22T17:33:33.410Z,2.90
2022-08-22T17:36:04.409Z,2.75
2022-08-22T17:38:45.423Z,3.25
2022-08-22T17:41:14.354Z,3.88
2022-08-22T17:43:18.522Z,3.28
2022-08-22T17:45:35.375Z,3.70
2022-08-22T17:47:49.832Z,3.35
2022-08-22T17:50:00.900Z,2.92
2022-08-22T17:52:32.582Z,2.83
2022-08-22T17:55:06.623Z,2.58
2022-08-22T17:57:24.903Z,3.20
2022-08-22T17:59:37.252Z,3.20
2022-08-22T18:02:18.949Z,2.72
2022-08-22T18:04:33.554Z,2.75
2022-08-22T18:06:44.219Z,2.90
2022-08-22T18:11:43.163Z,2.83
2022-08-22T18:13:59.138Z,2.97
2022-08-22T18:16:29.533Z,3.42
2022-08-22T18:18:37.447Z,3.00
2022-08-22T18:20:57.448Z,3.10
2022-08-22T18:23:15.324Z,3.38
2022-08-22T18:25:23.642Z,3.30
2022-08-22T18:27:30.045Z,3.20
2022-08-22T18:29:49.733Z,3.85
2022-08-22T18:32:17.072Z,3.55
2022-08-22T18:34:30.163Z,3.67
2022-08-22T18:36:38.260Z,3.83
2022-08-22T18:38:55.662Z,3.35
2022-08-22T18:41:03.814Z,3.00
2022-08-22T18:43:14.724Z,2.83
2022-08-22T18:45:48.216Z,2.50
2022-08-22T18:47:57.080Z,2.63
2022-08-22T18:50:01.030Z,2.65
2022-08-22T18:52:06.094Z,2.40
2022-08-22T18:54:07.752Z,3.05
2022-08-22T18:56:30.949Z,3.47
2022-08-22T18:59:05.561Z,3.72
2022-08-22T19:01:23.517Z,3.65
2022-08-22T19:03:52.457Z,3.70
2022-08-22T19:06:15.635Z,3.13
2022-08-22T19:08:34.761Z,4.28
2022-08-22T19:10:56.317Z,4.20
2022-08-22T19:13:09.004Z,4.28
2022-08-22T19:15:13.788Z,4.40
2022-08-22T19:17:42.943Z,3.53
2022-08-22T19:20:19.943Z,4.28
2022-08-22T19:22:21.860Z,3.22
2022-08-22T19:24:26.614Z,3.28
2022-08-22T19:26:33.794Z,2.97
2022-08-22T19:28:37.913Z,2.80
2022-08-22T19:30:40.887Z,3.05
2022-08-22T19:32:43.906Z,2.67
2022-08-22T19:34:48.039Z,2.63
2022-08-22T19:37:32.834Z,3.13
2022-08-22T19:39:54.847Z,2.67
2022-08-22T19:41:58.370Z,2.83
2022-08-22T19:44:00.841Z,2.30
2022-08-22T19:46:09.559Z,2.70
2022-08-22T19:48:14.774Z,2.53
2022-08-22T19:50:16.872Z,2.80
2022-08-22T19:52:44.666Z,2.75
2022-08-22T19:54:49.592Z,3.30
2022-08-22T19:57:19.735Z,2.97
2022-08-22T19:59:34.298Z,2.60
2022-08-22T20:01:56.522Z,3.20
2022-08-22T20:04:48.612Z,2.67
2022-08-22T20:07:14.798Z,2.20
2022-08-22T20:09:45.936Z,2.15
2022-08-22T20:12:09.208Z,2.58
2022-08-22T20:14:28.488Z,2.33
2022-08-22T20:16:59.660Z,2.92
2022-08-22T20:19:08.358Z,2.40
2022-08-22T20:21:11.503Z,2.35
2022-08-22T20:23:25.209Z,2.58
2022-08-22T20:25:44.029Z,2.90
2022-08-22T20:27:50.622Z,3.10
2022-08-22T20:30:17.214Z,2.88
2022-08-22T20:32:23.552Z,2.40
2022-08-22T20:34:28.899Z,2.88
2022-08-22T20:36:32.061Z,2.63
2022-08-22T20:38:55.595Z,2.63
2022-08-22T20:41:24.300Z,2.85
2022-08-22T20:43:35.205Z,2.53
2022-08-22T20:45:42.523Z,3.17
2022-08-22T20:47:50.898Z,3.17
2022-08-22T20:49:57.389Z,2.90
2022-08-22T20:52:00.477Z,2.95
2022-08-22T20:54:18.890Z,2.40
2022-08-22T20:56:38.856Z,2.53
2022-08-22T20:59:00.538Z,3.08
2022-08-22T21:01:04.202Z,2.75
2022-08-22T21:03:28.394Z,2.28
2022-08-22T21:05:39.117Z,2.47
2022-08-22T21:07:46.932Z,2.60
2022-08-22T21:10:36.641Z,2.42
2022-08-22T21:12:41.284Z,2.45
2022-08-22T21:14:46.460Z,2.80
2022-08-22T21:16:49.044Z,2.92
2022-08-22T21:18:54.181Z,2.53
2022-08-22T21:21:18.777Z,2.85
2022-08-22T21:23:21.143Z,2.72
2022-08-22T21:25:26.258Z,2.83
2022-08-22T21:27:32.305Z,2.90
2022-08-22T21:29:43.982Z,3.13
2022-08-22T21:32:04.401Z,2.83
2022-08-22T21:34:27.257Z,2.35
2022-08-22T21:36:32.005Z,2.78
2022-08-22T21:38:34.630Z,2.60
2022-08-22T21:40:38.336Z,2.38
2022-08-22T21:42:43.104Z,2.40
2022-08-22T21:45:02.850Z,2.88
2022-08-22T21:47:30.658Z,2.67
2022-08-22T21:49:33.890Z,2.45
2022-08-22T21:51:45.198Z,3.50
2022-08-22T21:53:47.753Z,3.55
2022-08-22T21:56:13.299Z,3.38
2022-08-22T21:58:18.470Z,3.55
2022-08-22T22:00:48.864Z,3.20
2022-08-22T22:02:59.538Z,2.92
2022-08-22T22:05:04.856Z,2.97
2022-08-22T22:07:09.583Z,3.28
2022-08-22T22:09:15.267Z,2.55
2022-08-22T22:11:18.276Z,2.67
2022-08-22T22:13:21.165Z,2.78
2022-08-22T22:15:34.850Z,3.15
2022-08-22T22:17:37.107Z,2.90
2022-08-22T22:19:39.447Z,3.00
2022-08-22T22:21:41.725Z,3.40
2022-08-22T22:23:44.293Z,2.85
2022-08-22T22:25:47.655Z,3.05
2022-08-22T22:27:50.387Z,3.25
2022-08-22T22:29:52.774Z,3.00
2022-08-22T22:31:55.383Z,3.00
2022-08-22T22:33:57.568Z,3.10
2022-08-22T22:36:06.086Z,2.95
2022-08-22T22:38:08.786Z,3.00
2022-08-22T22:40:12.312Z,2.95
2022-08-22T22:42:15.102Z,2.88
2022-08-22T22:44:17.361Z,3.13
2022-08-22T22:46:26.947Z,3.28
2022-08-22T22:48:32.217Z,3.40
2022-08-22T22:50:38.170Z,3.10
2022-08-22T22:52:40.853Z,3.20
2022-08-22T22:54:43.212Z,3.10
2022-08-22T22:56:47.987Z,3.13
2022-08-22T22:59:00.624Z,3.20
2022-08-22T23:01:24.331Z,3.05
2022-08-22T23:03:26.996Z,3.20
2022-08-22T23:05:33.398Z,3.38
2022-08-22T23:07:36.048Z,3.47
2022-08-22T23:09:44.733Z,3.30
2022-08-22T23:11:47.984Z,3.45
2022-08-22T23:13:51.093Z,3.28
2022-08-22T23:15:53.409Z,3.28
2022-08-22T23:17:56.003Z,3.20
2022-08-22T23:20:01.488Z,3.05
2022-08-22T23:22:03.968Z,3.28
2022-08-22T23:24:07.821Z,3.10
2022-08-22T23:26:13.532Z,3.28
2022-08-22T23:28:15.878Z,3.38
2022-08-22T23:30:18.243Z,3.38
2022-08-22T23:32:20.436Z,3.33
2022-08-22T23:34:29.887Z,2.88
2022-08-22T23:36:32.769Z,2.80
2022-08-22T23:38:35.259Z,2.72
2022-08-22T23:40:37.463Z,3.15
2022-08-22T23:42:39.645Z,3.40
2022-08-22T23:44:45.472Z,3.00
2022-08-22T23:46:48.633Z,2.80
2022-08-22T23:48:51.079Z,3.42
2022-08-22T23:50:56.100Z,3.13
2022-08-22T23:52:58.320Z,2.90
2022-08-22T23:55:00.517Z,3.80
2022-08-22T23:57:12.056Z,2.70
2022-08-22T23:59:17.752Z,3.05
